Main page
METAR-TAF:

METAR-TAF

Airports :

Logroño–Agoncillo Airport

Logroño, Spain

latitude: 42-27N, longitude: 002-20W, elevation: 353 m

Current weather observation

The report was made 40 minutes ago, at 19:30 UTC
Wind 7 kt from the West/Northwest, varying between West/Southwest and North/Northwest
Temperature 22°C
Humidity 60%
Pressure 1017 hPa
Visibility 10 km or more
Few clouds at a height of 4900 ft

METAR: LELO 281930Z AUTO 29007KT 250V330 9999 FEW049 22/14 Q1017

Time: 22:10 (20:10 UTC)

Forecast

The report was made 6 hours and 10 minutes ago, at 14:00 UTC
Forecast valid from 28 at 15 UTC to 29 at 15 UTC
Wind 5 kt from variable directions
Visibility 10 km or more
Few clouds at a height of 4000 ft
Temporary
from 28 at 15 UTC to 28 at 20 UTC
Wind 10 kt from the North/Northeast

TAF: LELO 281400Z 2815/2915 VRB05KT 9999 FEW040 TX32/2915Z TN15/2905Z TEMPO 2815/2820 02010KT

Weather observations and forecasts of more than 4000 airports (METAR and TAF reports).

The available stations are represented by yellow and red dots on the map.

Hover mouse over dot to see the name of the station.

Then click to see weather observations and forecasts.

To change the map : click on the green buttons with a black cross to zoom in, on the green button with a dash to zoom out, or on the green arrows for adjacent maps.


METAR-TAF: